Time;durP1;ratioP1;P1;durP2;ratioP2;P2;SDS_P1;SDS_P2;PMS_P1;PMS_P2;Temp;Humidity;BMP_temperature;BMP_pressure;BME280_temperature;BME280_humidity;BME280_pressure;Samples;Min_cycle;Max_cycle;Signal;HPM_P1;HPM_P2
2024/03/21 00:03:59;;;;;;;0.28;0.28;;;;;;;12.39;53.67;101372.75;15478462;28;20401;-48
2024/03/21 00:11:34;;;;;;;0.85;0.32;;;;;;;12.41;53.71;101371.53;15483792;28;20364;-49
2024/03/21 00:19:10;;;;;;;1.02;1.00;;;;;;;12.45;53.69;101372.75;15485773;28;20054;-50
2024/03/21 00:26:45;;;;;;;0.28;0.28;;;;;;;12.81;52.81;101360.69;15485647;28;20038;-49
2024/03/21 00:34:19;;;;;;;0.68;0.60;;;;;;;12.83;54.59;101360.50;15481094;28;20362;-46
2024/03/21 00:41:54;;;;;;;0.10;0.10;;;;;;;12.79;55.16;101360.09;15484743;28;20049;-47
2024/03/21 00:49:29;;;;;;;1.27;1.17;;;;;;;12.75;53.89;101332.75;15477593;28;20148;-50
2024/03/21 00:57:08;;;;;;;3.00;1.38;;;;;;;12.74;54.06;101355.34;15476017;28;20065;-48
2024/03/21 01:04:44;;;;;;;0.88;0.52;;;;;;;12.15;56.75;101347.25;15479497;28;20046;-49
2024/03/21 01:12:19;;;;;;;0.03;0.03;;;;;;;12.63;54.73;101341.66;15485149;28;20461;-47
2024/03/21 01:19:53;;;;;;;3.20;0.45;;;;;;;12.56;54.54;101340.84;15484424;28;20124;-49
2024/03/21 01:27:29;;;;;;;0.93;0.93;;;;;;;12.63;56.05;101325.50;15483335;28;20092;-52
2024/03/21 01:35:04;;;;;;;0.00;0.00;;;;;;;12.54;55.46;101321.38;15475092;28;20049;-50
2024/03/21 01:42:39;;;;;;;2.72;1.50;;;;;;;12.65;56.09;101313.50;15482796;28;20121;-46
2024/03/21 01:50:14;;;;;;;0.00;0.00;;;;;;;12.60;56.08;101315.16;15473687;28;20133;-47
2024/03/21 01:57:48;;;;;;;0.73;0.73;;;;;;;12.48;56.41;101309.56;15491704;28;20073;-50
2024/03/21 02:05:25;;;;;;;0.47;0.47;;;;;;;12.46;56.75;101296.34;15493952;28;20097;-49
2024/03/21 02:13:00;;;;;;;1.40;0.35;;;;;;;12.53;57.27;101293.63;15484497;28;20047;-47
2024/03/21 02:20:39;;;;;;;0.38;0.38;;;;;;;12.39;59.59;101294.66;15487466;28;20599;-49
2024/03/21 02:28:16;;;;;;;0.68;0.68;;;;;;;12.18;60.23;101282.28;15488136;28;20038;-49
2024/03/21 02:35:49;;;;;;;1.10;0.85;;;;;;;12.28;60.91;101290.75;15492110;28;20046;-46
2024/03/21 02:43:24;;;;;;;1.45;0.68;;;;;;;11.85;60.32;101275.03;15491114;28;20047;-46
2024/03/21 02:51:00;;;;;;;0.00;0.00;;;;;;;11.77;60.33;101274.34;15491357;28;20040;-47
2024/03/21 02:58:35;;;;;;;1.13;1.08;;;;;;;12.09;60.19;101273.56;15490463;28;20043;-49
2024/03/21 03:06:09;;;;;;;0.00;0.00;;;;;;;12.03;63.75;101282.50;15493445;28;20516;-50
2024/03/21 03:13:44;;;;;;;0.55;0.45;;;;;;;11.96;63.84;101278.94;15490138;28;20104;-49
2024/03/21 03:21:17;;;;;;;0.00;0.00;;;;;;;11.86;66.43;101281.22;15491238;28;20491;-50
2024/03/21 03:28:52;;;;;;;0.32;0.30;;;;;;;11.86;67.37;101284.72;15488056;28;20047;-47
2024/03/21 03:36:27;;;;;;;0.20;0.20;;;;;;;11.67;68.71;101285.50;15484029;28;20239;-49
2024/03/21 03:44:02;;;;;;;0.00;0.00;;;;;;;11.50;71.20;101287.72;15483705;28;20109;-48
2024/03/21 03:51:37;;;;;;;0.08;0.08;;;;;;;11.47;70.17;101285.44;15483415;28;20038;-49
2024/03/21 03:59:12;;;;;;;1.60;0.75;;;;;;;11.23;69.65;101276.88;15483308;28;20491;-52
2024/03/21 04:06:51;;;;;;;0.30;0.30;;;;;;;11.23;67.53;101265.31;15486440;28;20057;-49
2024/03/21 04:14:29;;;;;;;1.23;1.15;;;;;;;10.83;69.98;101264.34;15485822;28;20042;-47
2024/03/21 04:22:06;;;;;;;5.82;1.42;;;;;;;11.17;68.71;101256.22;15505590;23;20046;-48
2024/03/21 04:29:49;;;;;;;0.52;0.52;;;;;;;11.40;67.92;101271.16;15516420;28;20046;-47
2024/03/21 04:37:23;;;;;;;0.10;0.10;;;;;;;11.27;69.76;101261.19;15474475;28;20069;-44
2024/03/21 04:44:59;;;;;;;0.08;0.08;;;;;;;10.79;72.41;101266.59;15464956;28;20042;-46
2024/03/21 04:52:33;;;;;;;0.95;0.15;;;;;;;9.90;75.76;101264.50;15473580;28;20046;-53
2024/03/21 05:00:11;;;;;;;1.10;1.02;;;;;;;11.05;71.17;101267.72;15442640;28;20397;-47
2024/03/21 05:07:45;;;;;;;1.50;1.40;;;;;;;11.03;70.68;101249.13;15468413;28;20051;-51
2024/03/21 05:15:20;;;;;;;2.30;1.63;;;;;;;10.93;70.83;101246.81;15461362;28;20056;-50
2024/03/21 05:22:54;;;;;;;0.40;0.40;;;;;;;10.13;75.37;101228.56;15439755;28;20039;-46
2024/03/21 05:30:29;;;;;;;4.43;2.17;;;;;;;10.23;75.27;101221.81;15481092;28;20140;-50
2024/03/21 05:38:03;;;;;;;1.27;1.02;;;;;;;10.73;72.95;101240.53;15487429;28;20460;-46
2024/03/21 05:45:39;;;;;;;0.82;0.82;;;;;;;11.11;72.34;101234.69;15477426;28;20043;-49
2024/03/21 05:53:13;;;;;;;4.97;0.57;;;;;;;10.95;73.65;101238.56;15461785;28;20042;-48
2024/03/21 06:00:57;;;;;;;0.15;0.15;;;;;;;11.24;72.05;101238.25;15437584;28;20081;-54
2024/03/21 06:08:31;;;;;;;1.38;0.65;;;;;;;11.04;71.83;101239.22;15462508;28;20135;-47
2024/03/21 06:16:09;;;;;;;0.52;0.43;;;;;;;10.72;73.27;101238.84;15468785;28;20066;-50
2024/03/21 06:23:44;;;;;;;1.63;1.52;;;;;;;10.30;75.51;101246.03;15455506;28;20137;-49
2024/03/21 06:31:20;;;;;;;0.13;0.13;;;;;;;10.96;73.19;101245.59;15480550;28;20042;-49
2024/03/21 06:38:54;;;;;;;0.65;0.65;;;;;;;11.06;73.67;101254.13;15461158;28;20053;-51
2024/03/21 06:46:30;;;;;;;1.88;0.45;;;;;;;10.74;74.74;101269.03;15458605;28;20474;-45
2024/03/21 06:54:03;;;;;;;4.00;1.05;;;;;;;10.79;75.57;101271.13;15482576;28;20039;-47
2024/03/21 07:01:38;;;;;;;0.22;0.22;;;;;;;10.56;77.09;101274.09;15473558;28;20042;-45
2024/03/21 07:09:13;;;;;;;0.80;0.38;;;;;;;10.75;76.32;101289.50;15478959;28;20071;-49
2024/03/21 07:16:48;;;;;;;2.75;1.05;;;;;;;10.28;80.19;101300.94;15479894;28;20046;-52
2024/03/21 07:24:21;;;;;;;1.17;1.13;;;;;;;10.92;77.93;101319.53;15455759;28;20053;-46
2024/03/21 07:31:58;;;;;;;0.55;0.55;;;;;;;11.16;77.19;101340.53;15468986;28;20038;-48
2024/03/21 07:39:35;;;;;;;0.30;0.30;;;;;;;10.58;80.02;101339.13;15471123;28;20142;-47
2024/03/21 07:47:10;;;;;;;2.28;2.08;;;;;;;10.68;81.30;101377.22;15484792;28;20062;-47
2024/03/21 07:54:44;;;;;;;3.40;1.05;;;;;;;9.86;84.12;101366.94;15467687;28;20141;-50
2024/03/21 08:02:19;;;;;;;0.77;0.65;;;;;;;10.07;85.32;101398.31;15468612;28;20141;-51
2024/03/21 08:09:53;;;;;;;0.32;0.32;;;;;;;10.15;85.86;101400.88;15458050;28;20050;-46
2024/03/21 08:17:28;;;;;;;0.40;0.40;;;;;;;10.38;84.51;101389.97;15469186;28;20258;-46
2024/03/21 08:25:06;;;;;;;2.55;2.35;;;;;;;10.89;82.28;101395.13;15475022;28;20046;-48
2024/03/21 08:32:41;;;;;;;0.40;0.40;;;;;;;10.33;84.89;101421.94;15473656;28;20046;-44
2024/03/21 08:40:15;;;;;;;1.13;1.00;;;;;;;10.96;82.15;101422.88;15473563;28;20058;-49
2024/03/21 08:47:53;;;;;;;0.98;0.70;;;;;;;11.23;81.98;101413.94;15481719;28;20050;-44
2024/03/21 08:55:27;;;;;;;0.03;0.03;;;;;;;11.25;81.94;101419.13;15474622;28;20057;-45
2024/03/21 09:03:02;;;;;;;1.42;0.75;;;;;;;11.13;82.72;101413.47;15465221;28;20112;-45
2024/03/21 09:10:36;;;;;;;2.42;1.33;;;;;;;11.04;82.74;101417.34;15473199;28;20060;-46
2024/03/21 09:18:12;;;;;;;4.72;1.58;;;;;;;11.41;81.51;101410.72;15474693;28;20060;-51
2024/03/21 09:25:47;;;;;;;0.10;0.10;;;;;;;10.98;83.20;101399.31;15470544;28;20174;-50
2024/03/21 09:33:23;;;;;;;2.17;1.13;;;;;;;11.13;83.27;101383.91;15476585;28;20039;-45
2024/03/21 09:40:59;;;;;;;0.15;0.15;;;;;;;10.98;84.13;101354.50;15480247;28;20055;-45
2024/03/21 09:48:34;;;;;;;1.02;0.90;;;;;;;11.30;84.49;101349.50;15472536;28;20129;-44
2024/03/21 09:56:11;;;;;;;1.20;1.00;;;;;;;11.61;85.02;101324.81;15480322;28;20097;-49
2024/03/21 10:03:51;;;;;;;0.93;0.93;;;;;;;11.91;82.91;101311.03;15480313;28;20460;-44
2024/03/21 10:11:25;;;;;;;0.45;0.45;;;;;;;12.55;81.11;101291.56;15478128;28;20475;-48
2024/03/21 10:19:01;;;;;;;2.92;0.98;;;;;;;13.94;76.93;101274.78;15507318;23;20490;-55
2024/03/21 10:26:35;;;;;;;0.08;0.08;;;;;;;15.81;68.99;101298.72;15556151;28;20073;-55
2024/03/21 10:34:11;;;;;;;0.08;0.08;;;;;;;17.36;62.68;101319.09;15509148;28;20054;-54
2024/03/21 10:41:46;;;;;;;0.30;0.30;;;;;;;18.49;59.62;101320.00;15496231;28;20137;-54
2024/03/21 10:49:22;;;;;;;0.47;0.43;;;;;;;18.70;56.55;101326.63;15488688;28;20157;-54
2024/03/21 10:56:59;;;;;;;0.82;0.63;;;;;;;17.64;62.41;101348.13;15495408;28;20049;-53
2024/03/21 11:04:36;;;;;;;0.00;0.00;;;;;;;18.35;60.01;101344.00;15493968;28;20410;-54
2024/03/21 11:12:11;;;;;;;0.57;0.57;;;;;;;17.71;61.10;101375.13;15487684;28;20057;-51
2024/03/21 11:19:46;;;;;;;0.20;0.17;;;;;;;17.58;62.69;101382.50;15491576;28;20408;-53
2024/03/21 11:27:21;;;;;;;0.45;0.20;;;;;;;17.34;59.55;101370.88;15499357;28;20045;-54
2024/03/21 11:34:57;;;;;;;0.75;0.30;;;;;;;18.57;61.21;101375.88;15491261;28;20058;-55
2024/03/21 11:42:31;;;;;;;0.00;0.00;;;;;;;17.71;60.61;101373.25;15490740;28;20625;-53
2024/03/21 11:50:08;;;;;;;0.22;0.22;;;;;;;17.76;57.93;101369.81;15489515;28;20054;-52
2024/03/21 11:57:42;;;;;;;0.00;0.00;;;;;;;17.93;55.97;101369.88;15491121;28;20043;-52
2024/03/21 12:05:18;;;;;;;0.13;0.13;;;;;;;16.63;58.58;101376.56;15489222;28;20112;-52
2024/03/21 12:12:52;;;;;;;0.10;0.10;;;;;;;16.54;60.37;101374.22;15484630;28;20108;-53
2024/03/21 12:20:27;;;;;;;0.77;0.40;;;;;;;16.04;62.81;101379.16;15486163;28;20046;-52
2024/03/21 12:28:02;;;;;;;1.98;0.35;;;;;;;16.69;61.78;101375.63;15486079;28;20658;-53
2024/03/21 12:35:38;;;;;;;1.13;0.43;;;;;;;16.17;63.11;101370.84;15479463;28;20072;-53
2024/03/21 12:43:12;;;;;;;0.52;0.52;;;;;;;16.10;62.45;101363.91;15486369;28;20050;-52
2024/03/21 12:50:47;;;;;;;0.35;0.35;;;;;;;16.41;62.79;101366.28;15487322;28;20495;-53
2024/03/21 12:58:27;;;;;;;0.52;0.52;;;;;;;15.76;63.54;101371.66;15489203;28;20496;-55
2024/03/21 13:06:03;;;;;;;1.00;0.90;;;;;;;14.78;65.98;101376.09;15496195;28;20073;-51
2024/03/21 13:13:37;;;;;;;0.13;0.13;;;;;;;15.82;64.12;101395.13;15497592;28;20582;-52
2024/03/21 13:21:13;;;;;;;0.00;0.00;;;;;;;15.02;63.76;101414.13;15512938;28;20050;-54
2024/03/21 13:28:51;;;;;;;0.32;0.25;;;;;;;14.77;64.41;101417.66;15512519;28;20042;-54
2024/03/21 13:36:31;;;;;;;0.73;0.73;;;;;;;15.09;62.77;101411.34;15497374;28;20038;-54
2024/03/21 13:44:06;;;;;;;0.10;0.10;;;;;;;15.32;63.49;101403.38;15508370;28;20560;-57
2024/03/21 13:51:41;;;;;;;1.15;1.02;;;;;;;13.81;64.93;101428.69;15490194;28;20050;-54
2024/03/21 13:59:15;;;;;;;0.45;0.30;;;;;;;13.41;66.95;101420.72;15502671;28;20062;-52
2024/03/21 14:06:50;;;;;;;0.00;0.00;;;;;;;13.25;67.81;101443.59;15500871;28;20050;-53
2024/03/21 14:14:29;;;;;;;0.85;0.75;;;;;;;13.21;67.93;101460.38;15502798;28;20130;-52
2024/03/21 14:22:04;;;;;;;0.65;0.65;;;;;;;12.81;68.46;101454.16;15501289;28;20070;-50
2024/03/21 14:29:38;;;;;;;0.10;0.10;;;;;;;12.92;68.12;101464.34;15492181;28;20089;-51
2024/03/21 14:37:15;;;;;;;1.23;0.50;;;;;;;12.73;69.33;101477.59;15496174;28;20038;-52
2024/03/21 14:44:48;;;;;;;0.25;0.20;;;;;;;13.03;68.11;101478.00;15496144;28;20093;-49
2024/03/21 14:52:24;;;;;;;0.13;0.13;;;;;;;13.13;67.27;101491.06;15491298;28;20046;-51
2024/03/21 14:59:59;;;;;;;0.28;0.28;;;;;;;13.77;64.93;101495.72;15497175;28;20120;-52
2024/03/21 15:07:35;;;;;;;0.17;0.17;;;;;;;13.59;65.15;101500.13;15496998;28;20096;-54
2024/03/21 15:15:12;;;;;;;0.10;0.10;;;;;;;13.35;66.99;101510.56;15498417;28;20077;-54
2024/03/21 15:22:48;;;;;;;0.30;0.20;;;;;;;12.56;68.85;101514.03;15497967;28;20053;-48
2024/03/21 15:30:22;;;;;;;0.52;0.30;;;;;;;12.45;68.41;101520.00;15497432;28;20533;-49
2024/03/21 15:37:58;;;;;;;4.57;0.32;;;;;;;12.35;68.39;101517.69;15497706;28;20042;-50
2024/03/21 15:45:33;;;;;;;0.00;0.00;;;;;;;12.21;69.00;101529.44;15498054;28;20108;-50
2024/03/21 15:53:10;;;;;;;0.00;0.00;;;;;;;12.05;69.98;101535.19;15489786;28;20415;-51
2024/03/21 16:00:45;;;;;;;0.10;0.10;;;;;;;11.76;70.30;101529.03;15495638;28;20061;-50
2024/03/21 16:08:20;;;;;;;0.40;0.30;;;;;;;12.25;69.81;101545.00;15494464;28;20533;-48
2024/03/21 16:15:56;;;;;;;1.27;0.30;;;;;;;12.64;68.32;101537.25;15492831;28;20400;-49
2024/03/21 16:23:32;;;;;;;0.70;0.40;;;;;;;12.15;70.06;101533.78;15525955;23;20469;-49
2024/03/21 16:31:09;;;;;;;0.10;0.10;;;;;;;12.02;70.46;101538.28;15512881;28;20046;-48
2024/03/21 16:38:45;;;;;;;0.43;0.10;;;;;;;11.97;70.00;101541.56;15550376;28;20046;-50
2024/03/21 16:46:25;;;;;;;0.00;0.00;;;;;;;12.22;68.77;101549.97;15543847;28;20034;-49
2024/03/21 16:54:01;;;;;;;2.80;0.88;;;;;;;11.93;69.90;101568.03;15551416;28;20089;-51
2024/03/21 17:01:35;;;;;;;0.20;0.20;;;;;;;12.13;68.99;101570.84;15552309;28;20052;-48
2024/03/21 17:09:11;;;;;;;0.10;0.10;;;;;;;11.97;69.83;101593.50;15550142;28;20041;-48
2024/03/21 17:16:45;;;;;;;0.10;0.10;;;;;;;11.75;70.36;101592.75;15551719;28;20050;-49
2024/03/21 17:24:20;;;;;;;0.20;0.20;;;;;;;11.53;71.11;101598.38;15555521;28;20041;-51
2024/03/21 17:31:54;;;;;;;0.00;0.00;;;;;;;11.41;71.62;101593.53;15562200;28;20049;-49
2024/03/21 17:39:29;;;;;;;0.10;0.10;;;;;;;11.33;71.38;101606.25;15555075;28;20049;-49
2024/03/21 17:47:03;;;;;;;0.17;0.17;;;;;;;11.38;70.13;101612.75;15549554;28;20418;-48
2024/03/21 17:54:39;;;;;;;0.00;0.00;;;;;;;11.22;70.75;101624.56;15558507;28;20133;-49
2024/03/21 18:02:13;;;;;;;0.10;0.10;;;;;;;11.08;71.55;101622.78;15560266;28;20042;-49
2024/03/21 18:09:48;;;;;;;0.82;0.65;;;;;;;11.09;71.81;101616.38;15556595;28;20061;-50
2024/03/21 18:17:22;;;;;;;0.17;0.17;;;;;;;11.17;72.38;101627.03;15550914;28;20050;-50
2024/03/21 18:24:59;;;;;;;0.00;0.00;;;;;;;10.61;74.29;101624.16;15555563;28;20044;-46
2024/03/21 18:32:33;;;;;;;0.03;0.03;;;;;;;10.93;73.41;101624.72;15560417;28;20052;-46
2024/03/21 18:40:10;;;;;;;0.10;0.10;;;;;;;10.86;73.31;101621.13;15556032;28;20046;-46
2024/03/21 18:47:43;;;;;;;0.30;0.30;;;;;;;10.76;74.44;101636.72;15551703;28;20148;-48
2024/03/21 18:55:19;;;;;;;0.47;0.20;;;;;;;10.43;75.10;101642.50;15550222;28;20038;-45
2024/03/21 19:02:53;;;;;;;0.00;0.00;;;;;;;10.54;75.54;101641.19;15556464;28;20379;-47
2024/03/21 19:10:30;;;;;;;0.17;0.17;;;;;;;11.05;73.50;101642.00;15556919;28;20050;-47
2024/03/21 19:18:05;;;;;;;0.65;0.65;;;;;;;10.83;75.88;101656.44;15555172;28;20407;-49
2024/03/21 19:25:43;;;;;;;0.10;0.10;;;;;;;10.61;78.06;101659.06;15554400;28;20068;-45
2024/03/21 19:33:17;;;;;;;0.30;0.30;;;;;;;10.43;79.86;101675.56;15556972;28;20042;-47
2024/03/21 19:40:52;;;;;;;1.02;0.70;;;;;;;10.55;78.98;101692.03;15552316;28;20050;-49
2024/03/21 19:48:26;;;;;;;0.10;0.10;;;;;;;9.91;76.96;101703.25;15554930;28;20096;-47
2024/03/21 19:56:03;;;;;;;0.22;0.15;;;;;;;9.42;76.26;101724.28;15538386;28;20048;-49
2024/03/21 20:03:38;;;;;;;0.00;0.00;;;;;;;9.37;76.05;101737.34;15554132;28;20060;-47
2024/03/21 20:11:14;;;;;;;2.92;0.80;;;;;;;9.60;74.50;101738.19;15537930;28;20494;-46
2024/03/21 20:18:47;;;;;;;0.03;0.03;;;;;;;9.65;74.23;101726.94;15553969;28;20068;-48
2024/03/21 20:26:23;;;;;;;0.32;0.10;;;;;;;9.37;75.13;101726.63;15552568;28;20104;-46
2024/03/21 20:33:57;;;;;;;0.35;0.35;;;;;;;9.78;73.47;101737.06;15548809;28;20046;-48
2024/03/21 20:41:32;;;;;;;0.93;0.82;;;;;;;9.80;73.13;101743.09;15552238;28;20069;-47
2024/03/21 20:49:07;;;;;;;0.10;0.05;;;;;;;9.33;73.25;101750.28;15552034;28;20495;-46
2024/03/21 20:56:42;;;;;;;0.08;0.08;;;;;;;8.92;74.30;101744.31;15548975;28;20152;-50
2024/03/21 21:04:16;;;;;;;0.10;0.10;;;;;;;8.48;75.86;101752.84;15546045;28;20420;-46
2024/03/21 21:11:52;;;;;;;0.00;0.00;;;;;;;8.70;74.59;101751.25;15548063;28;20525;-48
2024/03/21 21:19:26;;;;;;;0.28;0.20;;;;;;;8.34;75.32;101716.06;15545846;28;20088;-46
2024/03/21 21:27:03;;;;;;;0.00;0.00;;;;;;;8.39;75.47;101761.88;15548071;28;20121;-51
2024/03/21 21:34:38;;;;;;;0.47;0.47;;;;;;;8.16;75.97;101759.09;15538989;28;20042;-46
2024/03/21 21:42:13;;;;;;;0.17;0.17;;;;;;;8.25;76.61;101765.22;15533636;28;20438;-46
2024/03/21 21:49:52;;;;;;;0.28;0.28;;;;;;;7.89;77.68;101766.44;15550513;28;20454;-48
2024/03/21 21:57:27;;;;;;;0.03;0.03;;;;;;;8.40;76.03;101775.13;15541334;28;20046;-49
2024/03/21 22:05:02;;;;;;;0.15;0.15;;;;;;;8.32;76.20;101774.25;15548474;28;20104;-47
2024/03/21 22:12:37;;;;;;;0.50;0.43;;;;;;;7.79;78.46;101763.09;15553036;28;20065;-45
2024/03/21 22:20:12;;;;;;;0.00;0.00;;;;;;;7.64;77.58;101741.53;15570021;23;20042;-51
2024/03/21 22:27:48;;;;;;;0.75;0.43;;;;;;;8.00;77.10;101756.41;15513449;28;20045;-53
2024/03/21 22:35:22;;;;;;;0.05;0.05;;;;;;;7.86;77.99;101755.25;15551327;28;20506;-53
2024/03/21 22:42:57;;;;;;;0.05;0.05;;;;;;;7.70;77.17;101747.25;15551134;28;20137;-52
2024/03/21 22:50:31;;;;;;;0.30;0.30;;;;;;;8.07;76.17;101731.50;15558029;28;20038;-52
2024/03/21 22:58:06;;;;;;;0.38;0.38;;;;;;;8.09;74.59;101736.69;15546146;28;20149;-52
2024/03/21 23:05:41;;;;;;;0.55;0.38;;;;;;;8.04;74.82;101739.88;15551672;28;20045;-54
2024/03/21 23:13:18;;;;;;;0.43;0.43;;;;;;;8.11;75.02;101742.69;15553153;28;20057;-53
2024/03/21 23:20:52;;;;;;;0.10;0.10;;;;;;;8.34;75.24;101724.91;15550233;28;20064;-52
2024/03/21 23:28:27;;;;;;;2.67;1.30;;;;;;;8.46;74.65;101717.41;15547059;28;20572;-53
2024/03/21 23:36:01;;;;;;;0.00;0.00;;;;;;;8.36;74.06;101706.03;15549425;28;20060;-51
2024/03/21 23:43:36;;;;;;;0.17;0.17;;;;;;;8.32;74.04;101694.00;15551060;28;20044;-51
2024/03/21 23:51:10;;;;;;;0.00;0.00;;;;;;;8.14;74.02;101692.38;15554230;28;20038;-52
2024/03/21 23:58:45;;;;;;;0.00;0.00;;;;;;;7.99;75.19;101675.38;15545193;28;20069;-51
